createdAt,value
2019-01-09T00:00:58.026Z,90.43
2019-01-09T00:03:28.415Z,84.97
2019-01-09T00:05:58.409Z,85.43
2019-01-09T00:08:27.739Z,104.83
2019-01-09T00:10:58.249Z,103.77
2019-01-09T00:13:27.346Z,105.93
2019-01-09T00:15:56.389Z,132.73
2019-01-09T00:18:25.686Z,118.10
2019-01-09T00:20:54.467Z,117.30
2019-01-09T00:23:24.846Z,116.37
2019-01-09T00:25:54.507Z,124.50
2019-01-09T00:28:23.952Z,138.63
2019-01-09T00:30:53.556Z,135.53
2019-01-09T00:33:24.509Z,140.87
2019-01-09T00:35:55.440Z,160.87
2019-01-09T00:38:27.713Z,193.37
2019-01-09T00:40:57.671Z,252.00
2019-01-09T00:43:26.725Z,197.03
2019-01-09T00:45:59.475Z,150.50
2019-01-09T00:48:30.329Z,140.93
2019-01-09T00:50:59.349Z,137.43
2019-01-09T00:53:31.794Z,201.13
2019-01-09T00:56:02.211Z,443.70
2019-01-09T00:58:33.402Z,172.10
2019-01-09T01:01:04.394Z,161.40
2019-01-09T01:04:43.179Z,147.67
2019-01-09T01:08:06.879Z,196.10
2019-01-09T01:11:47.486Z,262.07
2019-01-09T01:15:00.085Z,217.87
2019-01-09T01:18:28.726Z,269.47
2019-01-09T01:21:10.002Z,199.30
2019-01-09T01:24:29.713Z,329.80
2019-01-09T01:27:34.459Z,469.63
2019-01-09T01:31:10.200Z,433.20
2019-01-09T01:34:23.761Z,451.40
2019-01-09T01:37:50.743Z,439.97
2019-01-09T01:40:42.464Z,629.63
2019-01-09T01:44:03.371Z,244.73
2019-01-09T01:47:44.507Z,175.67
2019-01-09T01:51:51.302Z,128.77
2019-01-09T01:55:11.153Z,406.53
2019-01-09T01:58:44.409Z,448.30
2019-01-09T02:02:33.765Z,188.73
2019-01-09T02:05:42.205Z,325.13
2019-01-09T02:09:25.680Z,427.37
2019-01-09T02:12:29.824Z,506.80
2019-01-09T02:16:05.119Z,520.17
2019-01-09T02:19:20.359Z,661.10
2019-01-09T02:22:56.156Z,522.83
2019-01-09T02:26:22.324Z,547.50
2019-01-09T02:29:23.071Z,351.10
2019-01-09T02:32:30.737Z,321.13
2019-01-09T02:35:03.387Z,287.50
2019-01-09T02:37:33.225Z,199.07
2019-01-09T02:40:03.281Z,538.77
2019-01-09T02:42:34.532Z,212.67
2019-01-09T02:45:05.008Z,235.37
2019-01-09T02:47:34.725Z,238.53
2019-01-09T02:50:05.804Z,387.30
2019-01-09T02:52:36.782Z,234.93
2019-01-09T02:55:08.233Z,186.67
2019-01-09T02:57:38.873Z,146.17
2019-01-09T03:00:11.626Z,130.90
2019-01-09T03:02:42.078Z,136.40
2019-01-09T03:05:11.475Z,127.63
2019-01-09T03:07:42.051Z,125.43
2019-01-09T03:10:12.969Z,138.50
2019-01-09T03:12:43.121Z,130.33
2019-01-09T03:15:12.745Z,117.67
2019-01-09T03:17:42.988Z,117.17
2019-01-09T03:20:13.114Z,121.90
2019-01-09T03:22:42.085Z,109.93
2019-01-09T03:25:11.810Z,118.40
2019-01-09T03:27:41.330Z,109.90
2019-01-09T03:30:12.305Z,105.00
2019-01-09T03:32:40.912Z,116.10
2019-01-09T03:35:11.624Z,114.00
2019-01-09T03:37:41.038Z,93.47
2019-01-09T03:40:10.528Z,109.13
2019-01-09T03:42:40.412Z,117.77
2019-01-09T03:45:10.018Z,109.33
2019-01-09T03:47:40.854Z,124.33
2019-01-09T03:50:10.781Z,99.70
2019-01-09T03:52:40.600Z,113.20
2019-01-09T03:55:10.232Z,116.00
2019-01-09T03:57:40.797Z,112.40
2019-01-09T04:00:10.922Z,139.63
2019-01-09T04:02:40.924Z,117.10
2019-01-09T04:05:12.967Z,121.17
2019-01-09T04:07:43.076Z,112.20
2019-01-09T04:10:13.946Z,98.77
2019-01-09T04:12:44.702Z,103.47
2019-01-09T04:15:14.824Z,111.13
2019-01-09T04:17:44.568Z,125.07
2019-01-09T04:20:14.641Z,126.10
2019-01-09T04:22:44.577Z,127.00
2019-01-09T04:25:18.624Z,164.43
2019-01-09T04:27:49.192Z,115.63
2019-01-09T04:30:18.850Z,146.27
2019-01-09T04:32:47.711Z,157.83
2019-01-09T04:35:17.137Z,139.97
2019-01-09T04:37:48.109Z,132.50
2019-01-09T04:40:20.067Z,110.33
2019-01-09T04:42:51.199Z,126.47
2019-01-09T04:45:21.271Z,141.20
2019-01-09T04:47:51.294Z,121.90
2019-01-09T04:50:21.812Z,193.27
2019-01-09T04:52:51.695Z,155.73
2019-01-09T04:55:21.056Z,118.87
2019-01-09T04:57:51.362Z,131.73
2019-01-09T05:00:21.404Z,149.40
2019-01-09T05:02:50.945Z,180.53
2019-01-09T05:05:21.713Z,155.37
2019-01-09T05:07:52.959Z,148.03
2019-01-09T05:10:23.425Z,140.77
2019-01-09T05:12:53.888Z,189.90
2019-01-09T05:15:23.094Z,172.83
2019-01-09T05:17:52.319Z,172.00
2019-01-09T05:20:21.288Z,202.97
2019-01-09T05:22:50.146Z,189.20
2019-01-09T05:25:19.934Z,208.77
2019-01-09T05:27:50.009Z,116.97
2019-01-09T05:30:20.261Z,102.40
2019-01-09T05:32:49.390Z,123.00
2019-01-09T05:35:19.237Z,128.97
2019-01-09T05:37:49.029Z,138.63
2019-01-09T05:40:20.195Z,109.30
2019-01-09T05:42:49.140Z,118.50
2019-01-09T05:45:18.685Z,122.70
2019-01-09T05:47:55.081Z,85.50
2019-01-09T05:50:24.709Z,104.23
2019-01-09T05:52:54.353Z,103.77
2019-01-09T05:55:25.005Z,90.30
2019-01-09T05:57:54.564Z,84.60
2019-01-09T06:00:24.524Z,91.37
2019-01-09T06:03:07.563Z,76.97
2019-01-09T06:05:37.518Z,79.60
2019-01-09T06:08:06.686Z,69.57
2019-01-09T06:10:36.279Z,64.13
2019-01-09T06:13:07.103Z,61.60
2019-01-09T06:15:37.631Z,56.83
2019-01-09T06:18:08.317Z,54.77
2019-01-09T06:20:38.204Z,56.57
2019-01-09T06:23:07.953Z,51.07
2019-01-09T06:25:37.481Z,56.50
2019-01-09T06:28:08.296Z,57.40
2019-01-09T06:30:37.594Z,59.63
2019-01-09T06:33:08.086Z,54.17
2019-01-09T06:35:38.269Z,48.20
2019-01-09T06:38:09.238Z,48.70
2019-01-09T06:40:39.756Z,47.50
2019-01-09T06:43:10.837Z,57.17
2019-01-09T06:45:40.613Z,54.33
2019-01-09T06:48:16.596Z,70.10
2019-01-09T06:50:48.213Z,52.13
2019-01-09T06:53:18.126Z,63.63
2019-01-09T06:55:48.738Z,80.93
2019-01-09T06:58:20.143Z,63.83
2019-01-09T07:00:49.031Z,54.70
2019-01-09T07:03:21.076Z,69.63
2019-01-09T07:05:51.431Z,75.23
2019-01-09T07:08:21.494Z,77.97
2019-01-09T07:10:50.854Z,115.20
2019-01-09T07:13:21.183Z,86.03
2019-01-09T07:15:50.313Z,86.30
2019-01-09T07:18:19.998Z,107.47
2019-01-09T07:20:50.636Z,72.00
2019-01-09T07:23:20.201Z,70.87
2019-01-09T07:25:50.761Z,70.27
2019-01-09T07:28:22.129Z,53.03
2019-01-09T07:30:52.813Z,49.00
2019-01-09T07:33:23.528Z,52.63
2019-01-09T07:35:55.436Z,55.50
2019-01-09T07:38:25.624Z,69.67
2019-01-09T07:40:57.186Z,69.60
2019-01-09T07:43:26.664Z,59.83
2019-01-09T07:45:58.579Z,57.43
2019-01-09T07:48:28.745Z,50.13
2019-01-09T07:50:58.823Z,53.57
2019-01-09T07:53:29.378Z,51.27
2019-01-09T07:56:05.569Z,61.57
2019-01-09T07:58:36.356Z,55.80
2019-01-09T08:01:06.518Z,60.40
2019-01-09T08:03:35.791Z,61.53
2019-01-09T08:06:06.274Z,70.40
2019-01-09T08:08:36.446Z,66.73
2019-01-09T08:11:07.150Z,58.83
2019-01-09T08:13:36.401Z,66.93
2019-01-09T08:16:07.666Z,60.33
2019-01-09T08:18:38.801Z,54.33
2019-01-09T08:21:08.358Z,47.03
2019-01-09T08:23:37.747Z,44.37
2019-01-09T08:26:09.685Z,37.93
2019-01-09T08:29:00.413Z,38.53
2019-01-09T08:31:33.718Z,31.70
2019-01-09T08:34:03.584Z,30.47
2019-01-09T08:36:35.786Z,33.10
2019-01-09T08:39:07.063Z,25.73
2019-01-09T08:41:37.243Z,23.93
2019-01-09T08:44:06.639Z,26.47
2019-01-09T08:46:37.282Z,25.50
2019-01-09T08:49:07.299Z,24.77
2019-01-09T08:51:36.541Z,26.87
2019-01-09T08:54:06.619Z,29.67
2019-01-09T08:56:37.538Z,27.70
2019-01-09T08:59:08.307Z,28.63
2019-01-09T09:01:44.746Z,26.63
2019-01-09T09:04:14.324Z,30.80
2019-01-09T09:06:46.165Z,25.67
2019-01-09T09:09:17.023Z,23.63
2019-01-09T09:11:46.748Z,22.50
2019-01-09T09:14:16.924Z,23.40
2019-01-09T09:16:48.248Z,22.53
2019-01-09T09:19:18.265Z,23.23
2019-01-09T09:21:48.366Z,20.57
2019-01-09T09:24:18.326Z,22.77
2019-01-09T09:26:50.158Z,22.23
2019-01-09T09:29:22.518Z,21.73
2019-01-09T09:31:52.118Z,21.33
2019-01-09T09:34:39.964Z,23.43
2019-01-09T09:37:08.986Z,22.30
2019-01-09T09:39:39.183Z,20.93
2019-01-09T09:42:12.603Z,23.37
2019-01-09T09:44:44.708Z,26.77
2019-01-09T09:47:13.976Z,22.73
2019-01-09T09:49:44.026Z,27.03
2019-01-09T09:52:13.799Z,25.10
2019-01-09T09:54:44.695Z,23.47
2019-01-09T09:57:16.761Z,24.10
2019-01-09T09:59:45.707Z,25.07
2019-01-09T10:02:15.631Z,24.73
2019-01-09T10:04:45.561Z,25.20
2019-01-09T10:07:15.086Z,26.37
2019-01-09T10:09:44.923Z,26.73
2019-01-09T10:12:15.211Z,22.67
2019-01-09T10:14:44.576Z,23.57
2019-01-09T10:17:15.935Z,25.63
2019-01-09T10:19:47.581Z,25.40
2019-01-09T10:22:17.154Z,23.67
2019-01-09T10:24:47.614Z,23.33
2019-01-09T10:27:16.923Z,23.80
2019-01-09T10:29:53.696Z,23.57
2019-01-09T10:32:23.082Z,27.13
2019-01-09T10:34:54.366Z,26.73
2019-01-09T10:37:24.396Z,26.27
2019-01-09T10:39:55.313Z,24.77
2019-01-09T10:42:25.428Z,24.87
2019-01-09T10:44:55.424Z,27.50
2019-01-09T10:47:25.831Z,26.10
2019-01-09T10:49:57.679Z,24.77
2019-01-09T10:52:27.064Z,24.23
2019-01-09T10:54:57.571Z,42.23
2019-01-09T10:57:27.306Z,26.07
2019-01-09T10:59:57.821Z,23.73
2019-01-09T11:02:27.443Z,24.77
2019-01-09T11:04:58.139Z,25.03
2019-01-09T11:07:28.446Z,24.13
2019-01-09T11:09:58.811Z,24.80
2019-01-09T11:12:29.133Z,23.47
2019-01-09T11:15:00.296Z,22.90
2019-01-09T11:17:32.419Z,21.67
2019-01-09T11:20:02.206Z,23.60
2019-01-09T11:22:31.921Z,22.07
2019-01-09T11:25:01.840Z,27.53
2019-01-09T11:27:32.646Z,23.43
2019-01-09T11:30:04.106Z,28.07
2019-01-09T11:32:37.036Z,23.20
2019-01-09T11:35:08.727Z,23.30
2019-01-09T11:37:39.786Z,24.57
2019-01-09T11:40:11.922Z,23.57
2019-01-09T11:42:42.918Z,26.43
2019-01-09T11:45:16.651Z,22.83
2019-01-09T11:47:48.241Z,23.37
2019-01-09T11:50:19.214Z,22.23
2019-01-09T11:52:50.484Z,23.10
2019-01-09T11:55:21.387Z,22.73
2019-01-09T11:57:51.010Z,27.13
2019-01-09T12:00:27.369Z,20.10
2019-01-09T12:02:58.326Z,23.03
2019-01-09T12:05:29.092Z,27.40
2019-01-09T12:08:00.769Z,24.70
2019-01-09T12:10:32.161Z,23.93
2019-01-09T12:13:03.741Z,19.13
2019-01-09T12:15:34.231Z,24.80
2019-01-09T12:18:04.455Z,19.70
2019-01-09T12:20:33.756Z,15.17
2019-01-09T12:23:02.783Z,18.13
2019-01-09T12:25:32.509Z,23.43
2019-01-09T12:28:02.112Z,30.70
2019-01-09T12:30:32.060Z,21.70
2019-01-09T12:33:03.489Z,15.60
2019-01-09T12:35:32.681Z,18.53
2019-01-09T12:38:03.725Z,14.13
2019-01-09T12:40:33.641Z,15.87
2019-01-09T12:43:04.340Z,17.13
2019-01-09T12:45:34.792Z,15.53
2019-01-09T12:48:05.133Z,18.73
2019-01-09T12:50:36.389Z,19.57
2019-01-09T12:53:08.546Z,15.17
2019-01-09T12:55:39.902Z,18.60
2019-01-09T12:58:10.941Z,19.03
2019-01-09T13:00:41.514Z,18.50
2019-01-09T13:03:13.956Z,16.80
2019-01-09T13:05:44.039Z,16.37
2019-01-09T13:08:14.154Z,18.47
2019-01-09T13:10:44.389Z,18.05
2019-01-09T13:13:15.123Z,19.57
2019-01-09T13:15:45.111Z,14.10
2019-01-09T13:18:15.534Z,15.20
2019-01-09T13:20:45.615Z,14.93
2019-01-09T13:23:16.396Z,19.27
2019-01-09T13:25:45.648Z,13.20
2019-01-09T13:28:15.318Z,21.90
2019-01-09T13:30:47.631Z,22.87
2019-01-09T13:33:19.101Z,18.90
2019-01-09T13:35:52.544Z,11.47
2019-01-09T13:38:23.317Z,14.37
2019-01-09T13:40:55.189Z,12.60
2019-01-09T13:43:26.246Z,12.60
2019-01-09T13:45:55.114Z,13.43
2019-01-09T13:48:25.470Z,10.80
2019-01-09T13:50:55.152Z,11.93
2019-01-09T13:53:24.379Z,11.37
2019-01-09T13:55:55.509Z,8.47
2019-01-09T13:58:27.184Z,10.53
2019-01-09T14:00:58.211Z,8.90
2019-01-09T14:03:28.604Z,7.80
2019-01-09T14:05:59.741Z,9.07
2019-01-09T14:08:30.926Z,16.20
2019-01-09T14:11:01.012Z,8.43
2019-01-09T14:13:32.696Z,7.60
2019-01-09T14:16:04.241Z,9.83
2019-01-09T14:18:35.484Z,9.80
2019-01-09T14:21:05.025Z,12.07
2019-01-09T14:23:34.445Z,9.87
2019-01-09T14:26:04.891Z,14.80
2019-01-09T14:28:36.186Z,12.40
2019-01-09T14:31:06.611Z,12.63
2019-01-09T14:33:36.489Z,18.07
2019-01-09T14:36:08.016Z,12.50
2019-01-09T14:38:38.258Z,13.83
2019-01-09T14:41:08.929Z,15.97
2019-01-09T14:43:37.945Z,12.13
2019-01-09T14:46:08.343Z,18.97
2019-01-09T14:48:39.611Z,15.73
2019-01-09T14:51:09.308Z,16.50
2019-01-09T14:53:38.273Z,17.30
2019-01-09T14:56:07.439Z,15.23
2019-01-09T14:58:48.816Z,14.63
2019-01-09T15:01:18.014Z,17.87
2019-01-09T15:03:49.214Z,20.60
2019-01-09T15:06:19.605Z,21.57
2019-01-09T15:08:49.943Z,22.30
2019-01-09T15:11:20.739Z,22.90
2019-01-09T15:13:51.601Z,23.80
2019-01-09T15:16:22.657Z,21.40
2019-01-09T15:18:53.066Z,22.37
2019-01-09T15:21:22.649Z,23.17
2019-01-09T15:23:52.742Z,22.27
2019-01-09T15:26:22.970Z,21.80
2019-01-09T15:28:53.871Z,22.27
2019-01-09T15:31:24.447Z,21.53
2019-01-09T15:33:55.540Z,20.90
2019-01-09T15:36:26.321Z,22.07
2019-01-09T15:38:55.747Z,20.80
2019-01-09T15:41:25.777Z,20.43
2019-01-09T15:43:55.369Z,19.50
2019-01-09T15:46:25.261Z,22.57
2019-01-09T15:48:56.664Z,18.47
2019-01-09T15:51:26.309Z,20.27
2019-01-09T15:53:56.480Z,15.17
2019-01-09T15:56:27.494Z,18.23
2019-01-09T15:58:59.577Z,18.40
2019-01-09T16:01:28.855Z,19.23
2019-01-09T16:04:00.961Z,19.87
2019-01-09T16:06:32.251Z,17.67
2019-01-09T16:09:05.547Z,17.37
2019-01-09T16:11:36.517Z,17.67
2019-01-09T16:14:05.740Z,18.57
2019-01-09T16:16:36.156Z,17.37
2019-01-09T16:19:05.541Z,18.77
2019-01-09T16:21:35.777Z,22.67
2019-01-09T16:24:06.330Z,20.10
2019-01-09T16:26:37.242Z,18.47
2019-01-09T16:29:08.002Z,23.17
2019-01-09T16:31:41.089Z,23.90
2019-01-09T16:34:11.800Z,22.63
2019-01-09T16:36:42.957Z,20.90
2019-01-09T16:39:12.689Z,20.07
2019-01-09T16:41:43.678Z,20.63
2019-01-09T16:44:15.388Z,23.40
2019-01-09T16:46:47.515Z,18.97
2019-01-09T16:49:18.145Z,20.90
2019-01-09T16:51:47.612Z,26.60
2019-01-09T16:54:17.870Z,25.17
2019-01-09T16:56:47.962Z,23.10
2019-01-09T16:59:19.177Z,24.43
2019-01-09T17:01:50.370Z,22.13
2019-01-09T17:04:19.841Z,26.30
2019-01-09T17:06:50.185Z,22.90
2019-01-09T17:09:19.689Z,24.57
2019-01-09T17:11:51.652Z,26.17
2019-01-09T17:14:21.643Z,23.80
2019-01-09T17:16:53.734Z,23.63
2019-01-09T17:19:23.335Z,20.53
2019-01-09T17:21:52.377Z,24.07
2019-01-09T17:24:22.275Z,23.53
2019-01-09T17:26:52.482Z,22.07
2019-01-09T17:29:23.577Z,22.97
2019-01-09T17:31:54.822Z,23.90
2019-01-09T17:34:25.479Z,25.83
2019-01-09T17:36:56.480Z,23.03
2019-01-09T17:39:27.325Z,25.00
2019-01-09T17:41:59.007Z,23.30
2019-01-09T17:44:29.915Z,23.17
2019-01-09T17:47:02.632Z,25.30
2019-01-09T17:49:32.861Z,25.20
2019-01-09T17:52:02.437Z,21.40
2019-01-09T17:54:33.134Z,22.90
2019-01-09T17:57:03.768Z,25.07
2019-01-09T17:59:35.912Z,23.37
2019-01-09T18:02:08.326Z,14.20
2019-01-09T18:04:40.405Z,23.43
2019-01-09T18:07:12.753Z,25.23
2019-01-09T18:09:43.757Z,17.90
2019-01-09T18:12:15.504Z,20.90
2019-01-09T18:14:48.582Z,29.30
2019-01-09T18:17:22.624Z,37.03
2019-01-09T18:19:53.989Z,20.87
2019-01-09T18:22:26.226Z,22.43
2019-01-09T18:24:57.310Z,39.07
2019-01-09T18:27:29.859Z,23.70
2019-01-09T18:30:01.601Z,29.67
2019-01-09T18:33:03.173Z,26.03
2019-01-09T18:36:26.611Z,29.27
2019-01-09T18:39:48.502Z,25.53
2019-01-09T18:42:42.999Z,36.70
2019-01-09T18:46:00.731Z,28.97
2019-01-09T18:49:01.757Z,35.43
2019-01-09T18:52:19.069Z,30.70
2019-01-09T18:54:49.175Z,28.60
2019-01-09T18:57:21.823Z,25.93
2019-01-09T18:59:53.835Z,21.70
2019-01-09T19:02:24.579Z,27.33
2019-01-09T19:04:54.688Z,29.70
2019-01-09T19:07:26.187Z,26.17
2019-01-09T19:10:00.207Z,27.60
2019-01-09T19:12:30.962Z,26.67
2019-01-09T19:15:08.621Z,26.60
2019-01-09T19:17:39.876Z,27.57
2019-01-09T19:20:13.140Z,24.10
2019-01-09T19:22:45.209Z,28.33
2019-01-09T19:25:18.016Z,24.73
2019-01-09T19:27:51.658Z,21.93
2019-01-09T19:30:29.642Z,26.00
2019-01-09T19:33:06.928Z,23.60
2019-01-09T19:35:41.477Z,20.10
2019-01-09T19:38:17.812Z,18.87
2019-01-09T19:40:51.130Z,21.57
2019-01-09T19:43:23.150Z,19.63
2019-01-09T19:45:59.173Z,20.43
2019-01-09T19:48:35.050Z,15.77
2019-01-09T19:51:17.694Z,16.60
2019-01-09T19:53:50.729Z,17.57
2019-01-09T19:56:23.586Z,16.17
2019-01-09T19:58:59.532Z,16.93
2019-01-09T20:01:43.979Z,17.33
2019-01-09T20:04:18.376Z,15.17
2019-01-09T20:06:54.814Z,16.40
2019-01-09T20:09:28.893Z,16.03
2019-01-09T20:12:04.754Z,16.87
2019-01-09T20:14:44.668Z,16.90
2019-01-09T20:17:20.305Z,15.47
2019-01-09T20:19:55.783Z,17.63
2019-01-09T20:22:29.251Z,14.47
2019-01-09T20:25:05.794Z,16.57
2019-01-09T20:27:39.660Z,17.13
2019-01-09T20:30:23.091Z,16.73
2019-01-09T20:32:59.288Z,17.60
2019-01-09T20:35:36.455Z,17.83
2019-01-09T20:38:14.038Z,14.97
2019-01-09T20:40:49.392Z,16.20
2019-01-09T20:43:29.340Z,15.47
2019-01-09T20:46:05.351Z,16.03
2019-01-09T20:48:40.402Z,13.80
2019-01-09T20:51:19.813Z,15.73
2019-01-09T20:53:54.207Z,14.67
2019-01-09T20:56:31.203Z,15.17
2019-01-09T20:59:09.450Z,15.07
2019-01-09T21:01:47.965Z,15.43
2019-01-09T21:04:21.045Z,15.87
2019-01-09T21:06:54.122Z,16.23
2019-01-09T21:09:35.689Z,15.07
2019-01-09T21:12:12.236Z,15.93
2019-01-09T21:14:47.733Z,15.83
2019-01-09T21:17:18.677Z,15.60
2019-01-09T21:19:49.617Z,15.93
2019-01-09T21:22:19.913Z,20.30
2019-01-09T21:24:52.159Z,18.77
2019-01-09T21:27:22.294Z,21.07
2019-01-09T21:29:53.042Z,20.67
2019-01-09T21:32:23.862Z,26.20
2019-01-09T21:34:55.766Z,23.37
2019-01-09T21:37:25.652Z,22.47
2019-01-09T21:39:56.999Z,25.27
2019-01-09T21:42:27.770Z,20.70
2019-01-09T21:44:59.717Z,19.97
2019-01-09T21:47:29.075Z,22.97
2019-01-09T21:49:59.215Z,21.47
2019-01-09T21:52:29.652Z,17.63
2019-01-09T21:54:59.401Z,16.03
2019-01-09T21:57:30.604Z,19.50
2019-01-09T22:00:02.751Z,21.07
2019-01-09T22:02:33.690Z,19.00
2019-01-09T22:05:05.581Z,24.40
2019-01-09T22:07:37.165Z,17.33
2019-01-09T22:10:13.716Z,18.10
2019-01-09T22:12:43.871Z,16.60
2019-01-09T22:15:15.636Z,17.63
2019-01-09T22:17:46.285Z,17.97
2019-01-09T22:20:17.761Z,14.27
2019-01-09T22:22:48.910Z,13.83
2019-01-09T22:25:18.817Z,14.73
2019-01-09T22:27:48.944Z,15.30
2019-01-09T22:30:24.247Z,16.83
2019-01-09T22:32:54.989Z,12.60
2019-01-09T22:35:25.398Z,14.30
2019-01-09T22:37:57.824Z,11.07
2019-01-09T22:40:27.274Z,15.13
2019-01-09T22:42:58.180Z,15.87
2019-01-09T22:45:29.183Z,13.40
2019-01-09T22:47:59.688Z,15.00
2019-01-09T22:50:30.049Z,16.83
2019-01-09T22:52:59.533Z,13.83
2019-01-09T22:55:28.133Z,14.07
2019-01-09T22:57:58.081Z,14.33
2019-01-09T23:01:25.874Z,13.77
2019-01-09T23:03:58.266Z,13.40
2019-01-09T23:06:27.637Z,12.17
2019-01-09T23:08:58.214Z,12.67
2019-01-09T23:11:28.490Z,13.83
2019-01-09T23:13:58.685Z,14.10
2019-01-09T23:16:28.192Z,14.73
2019-01-09T23:18:57.851Z,13.93
2019-01-09T23:21:27.074Z,11.93
2019-01-09T23:23:58.054Z,13.90
2019-01-09T23:26:28.995Z,14.70
2019-01-09T23:28:58.540Z,12.80
2019-01-09T23:31:32.856Z,13.60
2019-01-09T23:34:03.121Z,15.57
2019-01-09T23:36:33.305Z,12.77
2019-01-09T23:39:09.231Z,14.40
2019-01-09T23:41:41.354Z,15.13
2019-01-09T23:44:11.035Z,13.57
2019-01-09T23:46:40.498Z,12.87
2019-01-09T23:49:10.079Z,15.27
2019-01-09T23:51:39.631Z,14.30
2019-01-09T23:54:08.836Z,15.07
2019-01-09T23:56:39.236Z,13.93
2019-01-09T23:59:09.008Z,14.87
